sensor_id;sensor_type;location;lat;lon;timestamp;P1;durP1;ratioP1;P2;durP2;ratioP2
74215;SDS011;62577;53.378;-2.914;2022-12-07T00:00:44;12.90;;;5.15;;
74215;SDS011;62577;53.378;-2.914;2022-12-07T00:03:10;13.48;;;4.57;;
74215;SDS011;62577;53.378;-2.914;2022-12-07T00:05:36;12.80;;;4.68;;
74215;SDS011;62577;53.378;-2.914;2022-12-07T00:08:02;10.70;;;4.20;;
74215;SDS011;62577;53.378;-2.914;2022-12-07T00:10:28;8.65;;;4.00;;
74215;SDS011;62577;53.378;-2.914;2022-12-07T00:12:54;12.88;;;4.65;;
74215;SDS011;62577;53.378;-2.914;2022-12-07T00:15:20;12.18;;;4.72;;
74215;SDS011;62577;53.378;-2.914;2022-12-07T00:17:46;12.98;;;4.28;;
74215;SDS011;62577;53.378;-2.914;2022-12-07T00:20:12;8.68;;;4.07;;
74215;SDS011;62577;53.378;-2.914;2022-12-07T00:22:38;6.15;;;3.50;;
74215;SDS011;62577;53.378;-2.914;2022-12-07T00:25:04;8.48;;;3.58;;
74215;SDS011;62577;53.378;-2.914;2022-12-07T00:27:30;7.53;;;3.17;;
74215;SDS011;62577;53.378;-2.914;2022-12-07T00:29:56;12.05;;;3.10;;
74215;SDS011;62577;53.378;-2.914;2022-12-07T00:32:22;7.57;;;2.40;;
74215;SDS011;62577;53.378;-2.914;2022-12-07T00:34:48;9.15;;;2.63;;
74215;SDS011;62577;53.378;-2.914;2022-12-07T00:37:14;11.93;;;2.78;;
74215;SDS011;62577;53.378;-2.914;2022-12-07T00:39:40;8.95;;;3.15;;
74215;SDS011;62577;53.378;-2.914;2022-12-07T00:42:06;11.23;;;2.22;;
74215;SDS011;62577;53.378;-2.914;2022-12-07T00:44:32;7.22;;;2.25;;
74215;SDS011;62577;53.378;-2.914;2022-12-07T00:46:59;11.25;;;2.70;;
74215;SDS011;62577;53.378;-2.914;2022-12-07T00:49:24;5.93;;;2.10;;
74215;SDS011;62577;53.378;-2.914;2022-12-07T00:51:51;8.00;;;2.33;;
74215;SDS011;62577;53.378;-2.914;2022-12-07T00:54:17;8.57;;;1.90;;
74215;SDS011;62577;53.378;-2.914;2022-12-07T00:56:43;7.68;;;1.92;;
74215;SDS011;62577;53.378;-2.914;2022-12-07T00:59:10;5.53;;;1.50;;
74215;SDS011;62577;53.378;-2.914;2022-12-07T01:01:36;8.75;;;2.80;;
74215;SDS011;62577;53.378;-2.914;2022-12-07T01:04:02;7.53;;;2.00;;
74215;SDS011;62577;53.378;-2.914;2022-12-07T01:06:29;6.13;;;2.20;;
74215;SDS011;62577;53.378;-2.914;2022-12-07T01:08:55;9.52;;;2.13;;
74215;SDS011;62577;53.378;-2.914;2022-12-07T01:11:22;3.85;;;1.27;;
74215;SDS011;62577;53.378;-2.914;2022-12-07T01:13:49;7.93;;;2.17;;
74215;SDS011;62577;53.378;-2.914;2022-12-07T01:16:16;5.43;;;1.50;;
74215;SDS011;62577;53.378;-2.914;2022-12-07T01:18:42;3.08;;;1.45;;
74215;SDS011;62577;53.378;-2.914;2022-12-07T01:23:37;7.28;;;1.60;;
74215;SDS011;62577;53.378;-2.914;2022-12-07T01:26:05;4.85;;;1.58;;
74215;SDS011;62577;53.378;-2.914;2022-12-07T01:28:32;5.20;;;1.30;;
74215;SDS011;62577;53.378;-2.914;2022-12-07T01:30:58;3.88;;;1.45;;
74215;SDS011;62577;53.378;-2.914;2022-12-07T01:33:26;7.32;;;1.42;;
74215;SDS011;62577;53.378;-2.914;2022-12-07T01:35:52;9.00;;;1.92;;
74215;SDS011;62577;53.378;-2.914;2022-12-07T01:38:18;5.35;;;1.00;;
74215;SDS011;62577;53.378;-2.914;2022-12-07T01:40:44;5.13;;;1.40;;
74215;SDS011;62577;53.378;-2.914;2022-12-07T01:43:14;5.65;;;1.25;;
74215;SDS011;62577;53.378;-2.914;2022-12-07T01:45:43;3.90;;;1.00;;
74215;SDS011;62577;53.378;-2.914;2022-12-07T01:48:09;5.93;;;1.23;;
74215;SDS011;62577;53.378;-2.914;2022-12-07T01:50:36;4.40;;;1.70;;
74215;SDS011;62577;53.378;-2.914;2022-12-07T01:53:04;4.40;;;1.80;;
74215;SDS011;62577;53.378;-2.914;2022-12-07T01:55:32;4.65;;;1.25;;
74215;SDS011;62577;53.378;-2.914;2022-12-07T01:57:59;5.38;;;1.90;;
74215;SDS011;62577;53.378;-2.914;2022-12-07T02:00:25;7.07;;;1.83;;
74215;SDS011;62577;53.378;-2.914;2022-12-07T02:03:52;7.47;;;1.40;;
74215;SDS011;62577;53.378;-2.914;2022-12-07T02:05:47;6.70;;;1.88;;
74215;SDS011;62577;53.378;-2.914;2022-12-07T02:08:14;9.30;;;1.77;;
74215;SDS011;62577;53.378;-2.914;2022-12-07T02:10:40;5.65;;;1.45;;
74215;SDS011;62577;53.378;-2.914;2022-12-07T02:13:11;4.55;;;1.40;;
74215;SDS011;62577;53.378;-2.914;2022-12-07T02:15:47;7.80;;;1.67;;
74215;SDS011;62577;53.378;-2.914;2022-12-07T02:18:21;10.70;;;2.20;;
74215;SDS011;62577;53.378;-2.914;2022-12-07T02:20:54;9.80;;;2.30;;
74215;SDS011;62577;53.378;-2.914;2022-12-07T02:30:45;7.22;;;2.40;;
74215;SDS011;62577;53.378;-2.914;2022-12-07T02:33:24;8.55;;;2.13;;
74215;SDS011;62577;53.378;-2.914;2022-12-07T02:41:24;6.82;;;2.05;;
74215;SDS011;62577;53.378;-2.914;2022-12-07T02:43:52;8.75;;;1.90;;
74215;SDS011;62577;53.378;-2.914;2022-12-07T02:46:27;9.30;;;2.63;;
74215;SDS011;62577;53.378;-2.914;2022-12-07T02:51:21;7.65;;;2.03;;
74215;SDS011;62577;53.378;-2.914;2022-12-07T02:53:47;4.55;;;2.08;;
74215;SDS011;62577;53.378;-2.914;2022-12-07T02:58:44;6.82;;;1.98;;
74215;SDS011;62577;53.378;-2.914;2022-12-07T03:03:39;8.38;;;2.38;;
74215;SDS011;62577;53.378;-2.914;2022-12-07T03:06:10;12.13;;;2.40;;
74215;SDS011;62577;53.378;-2.914;2022-12-07T03:11:48;7.03;;;1.77;;
74215;SDS011;62577;53.378;-2.914;2022-12-07T03:14:18;10.88;;;2.33;;
74215;SDS011;62577;53.378;-2.914;2022-12-07T03:17:20;7.07;;;1.95;;
74215;SDS011;62577;53.378;-2.914;2022-12-07T03:19:39;8.88;;;2.08;;
74215;SDS011;62577;53.378;-2.914;2022-12-07T03:22:10;6.60;;;1.88;;
74215;SDS011;62577;53.378;-2.914;2022-12-07T03:24:47;5.55;;;1.23;;
74215;SDS011;62577;53.378;-2.914;2022-12-07T03:27:21;2.40;;;0.80;;
74215;SDS011;62577;53.378;-2.914;2022-12-07T03:29:56;3.72;;;0.77;;
74215;SDS011;62577;53.378;-2.914;2022-12-07T03:34:58;5.70;;;1.05;;
74215;SDS011;62577;53.378;-2.914;2022-12-07T03:37:33;5.10;;;1.05;;
74215;SDS011;62577;53.378;-2.914;2022-12-07T03:42:32;8.45;;;1.17;;
74215;SDS011;62577;53.378;-2.914;2022-12-07T03:44:58;5.60;;;1.25;;
74215;SDS011;62577;53.378;-2.914;2022-12-07T03:50:07;7.22;;;1.65;;
74215;SDS011;62577;53.378;-2.914;2022-12-07T03:52:42;6.63;;;1.20;;
74215;SDS011;62577;53.378;-2.914;2022-12-07T04:00:04;6.03;;;1.00;;
74215;SDS011;62577;53.378;-2.914;2022-12-07T04:02:31;9.93;;;2.22;;
74215;SDS011;62577;53.378;-2.914;2022-12-07T04:04:57;7.28;;;1.77;;
74215;SDS011;62577;53.378;-2.914;2022-12-07T04:07:24;4.35;;;1.15;;
74215;SDS011;62577;53.378;-2.914;2022-12-07T04:09:50;3.15;;;0.80;;
74215;SDS011;62577;53.378;-2.914;2022-12-07T04:12:16;6.20;;;1.20;;
74215;SDS011;62577;53.378;-2.914;2022-12-07T04:14:42;3.95;;;0.80;;
74215;SDS011;62577;53.378;-2.914;2022-12-07T04:17:09;4.65;;;0.93;;
74215;SDS011;62577;53.378;-2.914;2022-12-07T04:19:35;4.25;;;1.23;;
74215;SDS011;62577;53.378;-2.914;2022-12-07T04:22:01;7.32;;;1.10;;
74215;SDS011;62577;53.378;-2.914;2022-12-07T04:24:28;6.20;;;1.63;;
74215;SDS011;62577;53.378;-2.914;2022-12-07T04:26:54;6.43;;;1.55;;
74215;SDS011;62577;53.378;-2.914;2022-12-07T04:29:20;6.78;;;1.10;;
74215;SDS011;62577;53.378;-2.914;2022-12-07T04:31:47;6.00;;;1.17;;
74215;SDS011;62577;53.378;-2.914;2022-12-07T04:34:13;5.15;;;1.10;;
74215;SDS011;62577;53.378;-2.914;2022-12-07T04:36:40;4.50;;;1.35;;
74215;SDS011;62577;53.378;-2.914;2022-12-07T04:39:06;5.93;;;1.33;;
74215;SDS011;62577;53.378;-2.914;2022-12-07T04:41:33;4.80;;;1.30;;
74215;SDS011;62577;53.378;-2.914;2022-12-07T04:44:00;4.13;;;1.08;;
74215;SDS011;62577;53.378;-2.914;2022-12-07T04:46:27;4.95;;;1.38;;
74215;SDS011;62577;53.378;-2.914;2022-12-07T04:48:53;5.05;;;1.73;;
74215;SDS011;62577;53.378;-2.914;2022-12-07T04:51:21;6.95;;;1.48;;
74215;SDS011;62577;53.378;-2.914;2022-12-07T04:53:48;4.90;;;1.58;;
74215;SDS011;62577;53.378;-2.914;2022-12-07T04:56:14;6.28;;;1.75;;
74215;SDS011;62577;53.378;-2.914;2022-12-07T04:58:41;7.40;;;2.13;;
74215;SDS011;62577;53.378;-2.914;2022-12-07T05:01:07;5.53;;;1.73;;
74215;SDS011;62577;53.378;-2.914;2022-12-07T05:03:33;8.40;;;1.67;;
74215;SDS011;62577;53.378;-2.914;2022-12-07T05:05:59;6.85;;;2.15;;
74215;SDS011;62577;53.378;-2.914;2022-12-07T05:08:25;4.57;;;1.30;;
74215;SDS011;62577;53.378;-2.914;2022-12-07T05:10:51;10.23;;;2.17;;
74215;SDS011;62577;53.378;-2.914;2022-12-07T05:13:17;8.75;;;1.80;;
74215;SDS011;62577;53.378;-2.914;2022-12-07T05:15:43;6.88;;;1.75;;
74215;SDS011;62577;53.378;-2.914;2022-12-07T05:18:10;8.52;;;1.92;;
74215;SDS011;62577;53.378;-2.914;2022-12-07T05:20:38;5.35;;;2.15;;
74215;SDS011;62577;53.378;-2.914;2022-12-07T05:23:04;7.00;;;1.95;;
74215;SDS011;62577;53.378;-2.914;2022-12-07T05:25:30;7.10;;;1.80;;
74215;SDS011;62577;53.378;-2.914;2022-12-07T05:27:56;9.52;;;2.35;;
74215;SDS011;62577;53.378;-2.914;2022-12-07T05:30:22;6.78;;;1.80;;
74215;SDS011;62577;53.378;-2.914;2022-12-07T05:32:49;8.15;;;2.17;;
74215;SDS011;62577;53.378;-2.914;2022-12-07T05:35:15;6.75;;;2.03;;
74215;SDS011;62577;53.378;-2.914;2022-12-07T05:37:41;4.80;;;1.35;;
74215;SDS011;62577;53.378;-2.914;2022-12-07T05:40:07;8.02;;;1.65;;
74215;SDS011;62577;53.378;-2.914;2022-12-07T05:42:34;9.88;;;1.67;;
74215;SDS011;62577;53.378;-2.914;2022-12-07T05:45:00;4.05;;;1.30;;
74215;SDS011;62577;53.378;-2.914;2022-12-07T05:47:26;6.90;;;2.00;;
74215;SDS011;62577;53.378;-2.914;2022-12-07T05:49:52;4.97;;;1.52;;
74215;SDS011;62577;53.378;-2.914;2022-12-07T05:52:18;4.03;;;1.50;;
74215;SDS011;62577;53.378;-2.914;2022-12-07T05:54:44;7.13;;;1.95;;
74215;SDS011;62577;53.378;-2.914;2022-12-07T05:57:10;5.88;;;1.58;;
74215;SDS011;62577;53.378;-2.914;2022-12-07T05:59:36;5.95;;;1.80;;
74215;SDS011;62577;53.378;-2.914;2022-12-07T06:02:04;7.50;;;1.73;;
74215;SDS011;62577;53.378;-2.914;2022-12-07T06:04:32;5.05;;;1.67;;
74215;SDS011;62577;53.378;-2.914;2022-12-07T06:06:58;8.20;;;1.50;;
74215;SDS011;62577;53.378;-2.914;2022-12-07T06:09:25;7.40;;;1.30;;
74215;SDS011;62577;53.378;-2.914;2022-12-07T06:11:51;5.53;;;2.03;;
74215;SDS011;62577;53.378;-2.914;2022-12-07T06:14:36;9.05;;;1.77;;
74215;SDS011;62577;53.378;-2.914;2022-12-07T06:17:02;6.90;;;1.95;;
74215;SDS011;62577;53.378;-2.914;2022-12-07T06:19:28;4.45;;;1.17;;
74215;SDS011;62577;53.378;-2.914;2022-12-07T06:21:54;7.40;;;1.52;;
74215;SDS011;62577;53.378;-2.914;2022-12-07T06:24:21;4.95;;;0.95;;
74215;SDS011;62577;53.378;-2.914;2022-12-07T06:26:47;6.47;;;1.40;;
74215;SDS011;62577;53.378;-2.914;2022-12-07T06:29:13;5.63;;;1.08;;
74215;SDS011;62577;53.378;-2.914;2022-12-07T06:31:40;7.05;;;1.30;;
74215;SDS011;62577;53.378;-2.914;2022-12-07T06:34:07;4.18;;;1.50;;
74215;SDS011;62577;53.378;-2.914;2022-12-07T06:36:34;4.95;;;1.25;;
74215;SDS011;62577;53.378;-2.914;2022-12-07T06:39:00;4.68;;;1.13;;
74215;SDS011;62577;53.378;-2.914;2022-12-07T06:41:26;4.80;;;1.33;;
74215;SDS011;62577;53.378;-2.914;2022-12-07T06:43:53;4.65;;;1.42;;
74215;SDS011;62577;53.378;-2.914;2022-12-07T06:46:19;6.22;;;0.98;;
74215;SDS011;62577;53.378;-2.914;2022-12-07T06:48:45;7.90;;;1.38;;
74215;SDS011;62577;53.378;-2.914;2022-12-07T06:51:11;6.65;;;1.60;;
74215;SDS011;62577;53.378;-2.914;2022-12-07T06:53:37;5.38;;;1.63;;
74215;SDS011;62577;53.378;-2.914;2022-12-07T06:56:03;4.05;;;1.60;;
74215;SDS011;62577;53.378;-2.914;2022-12-07T06:58:30;4.88;;;1.70;;
74215;SDS011;62577;53.378;-2.914;2022-12-07T07:00:56;5.00;;;1.90;;
74215;SDS011;62577;53.378;-2.914;2022-12-07T07:03:22;6.38;;;1.45;;
74215;SDS011;62577;53.378;-2.914;2022-12-07T07:05:48;7.03;;;1.95;;
74215;SDS011;62577;53.378;-2.914;2022-12-07T07:08:14;8.50;;;1.98;;
74215;SDS011;62577;53.378;-2.914;2022-12-07T07:10:40;6.38;;;1.92;;
74215;SDS011;62577;53.378;-2.914;2022-12-07T07:13:07;6.85;;;2.05;;
74215;SDS011;62577;53.378;-2.914;2022-12-07T07:15:33;3.80;;;1.30;;
74215;SDS011;62577;53.378;-2.914;2022-12-07T07:18:00;7.22;;;2.00;;
74215;SDS011;62577;53.378;-2.914;2022-12-07T07:20:28;7.18;;;2.03;;
74215;SDS011;62577;53.378;-2.914;2022-12-07T07:22:54;7.13;;;2.58;;
74215;SDS011;62577;53.378;-2.914;2022-12-07T07:25:20;7.00;;;2.28;;
74215;SDS011;62577;53.378;-2.914;2022-12-07T07:27:47;7.00;;;2.30;;
74215;SDS011;62577;53.378;-2.914;2022-12-07T07:30:13;7.43;;;2.05;;
74215;SDS011;62577;53.378;-2.914;2022-12-07T07:32:39;4.88;;;1.83;;
74215;SDS011;62577;53.378;-2.914;2022-12-07T07:35:05;3.60;;;1.75;;
74215;SDS011;62577;53.378;-2.914;2022-12-07T07:37:31;4.70;;;2.17;;
74215;SDS011;62577;53.378;-2.914;2022-12-07T07:39:57;6.72;;;2.25;;
74215;SDS011;62577;53.378;-2.914;2022-12-07T07:42:23;5.15;;;2.45;;
74215;SDS011;62577;53.378;-2.914;2022-12-07T07:44:49;5.65;;;2.20;;
74215;SDS011;62577;53.378;-2.914;2022-12-07T07:47:15;7.07;;;2.38;;
74215;SDS011;62577;53.378;-2.914;2022-12-07T07:49:41;5.30;;;2.03;;
74215;SDS011;62577;53.378;-2.914;2022-12-07T07:52:07;3.47;;;2.20;;
74215;SDS011;62577;53.378;-2.914;2022-12-07T07:54:33;6.05;;;2.15;;
74215;SDS011;62577;53.378;-2.914;2022-12-07T07:56:59;4.15;;;1.80;;
74215;SDS011;62577;53.378;-2.914;2022-12-07T07:59:25;4.97;;;1.67;;
74215;SDS011;62577;53.378;-2.914;2022-12-07T08:01:51;6.22;;;2.20;;
74215;SDS011;62577;53.378;-2.914;2022-12-07T08:04:17;5.78;;;2.13;;
74215;SDS011;62577;53.378;-2.914;2022-12-07T08:06:44;7.20;;;2.25;;
74215;SDS011;62577;53.378;-2.914;2022-12-07T08:09:10;3.47;;;1.73;;
74215;SDS011;62577;53.378;-2.914;2022-12-07T08:11:36;6.07;;;2.72;;
74215;SDS011;62577;53.378;-2.914;2022-12-07T08:14:02;7.25;;;2.15;;
74215;SDS011;62577;53.378;-2.914;2022-12-07T08:16:28;7.43;;;2.50;;
74215;SDS011;62577;53.378;-2.914;2022-12-07T08:18:54;5.03;;;1.80;;
74215;SDS011;62577;53.378;-2.914;2022-12-07T08:21:21;5.00;;;1.48;;
74215;SDS011;62577;53.378;-2.914;2022-12-07T08:23:47;7.20;;;2.15;;
74215;SDS011;62577;53.378;-2.914;2022-12-07T08:26:14;3.80;;;1.52;;
74215;SDS011;62577;53.378;-2.914;2022-12-07T08:28:41;7.90;;;2.70;;
74215;SDS011;62577;53.378;-2.914;2022-12-07T08:31:11;6.45;;;2.03;;
74215;SDS011;62577;53.378;-2.914;2022-12-07T08:33:37;4.75;;;2.00;;
74215;SDS011;62577;53.378;-2.914;2022-12-07T08:36:05;5.43;;;1.95;;
74215;SDS011;62577;53.378;-2.914;2022-12-07T08:38:31;4.18;;;1.63;;
74215;SDS011;62577;53.378;-2.914;2022-12-07T08:40:58;4.55;;;2.20;;
74215;SDS011;62577;53.378;-2.914;2022-12-07T08:43:24;8.73;;;1.83;;
74215;SDS011;62577;53.378;-2.914;2022-12-07T08:46:03;9.35;;;2.30;;
74215;SDS011;62577;53.378;-2.914;2022-12-07T08:48:29;6.22;;;2.67;;
74215;SDS011;62577;53.378;-2.914;2022-12-07T08:50:56;4.22;;;2.33;;
74215;SDS011;62577;53.378;-2.914;2022-12-07T08:53:23;4.80;;;2.90;;
74215;SDS011;62577;53.378;-2.914;2022-12-07T08:55:49;6.35;;;2.33;;
74215;SDS011;62577;53.378;-2.914;2022-12-07T08:58:15;6.50;;;2.05;;
74215;SDS011;62577;53.378;-2.914;2022-12-07T09:00:41;4.40;;;2.22;;
74215;SDS011;62577;53.378;-2.914;2022-12-07T09:03:07;10.80;;;4.10;;
74215;SDS011;62577;53.378;-2.914;2022-12-07T09:05:33;8.48;;;3.10;;
74215;SDS011;62577;53.378;-2.914;2022-12-07T09:08:00;6.53;;;2.03;;
74215;SDS011;62577;53.378;-2.914;2022-12-07T09:10:26;6.75;;;1.92;;
74215;SDS011;62577;53.378;-2.914;2022-12-07T09:12:52;6.70;;;1.80;;
74215;SDS011;62577;53.378;-2.914;2022-12-07T09:15:18;5.80;;;1.55;;
74215;SDS011;62577;53.378;-2.914;2022-12-07T09:17:45;4.85;;;2.05;;
74215;SDS011;62577;53.378;-2.914;2022-12-07T09:20:11;5.57;;;1.40;;
74215;SDS011;62577;53.378;-2.914;2022-12-07T09:22:37;4.18;;;2.05;;
74215;SDS011;62577;53.378;-2.914;2022-12-07T09:25:03;3.10;;;1.60;;
74215;SDS011;62577;53.378;-2.914;2022-12-07T09:27:30;4.70;;;2.08;;
74215;SDS011;62577;53.378;-2.914;2022-12-07T09:29:56;3.85;;;1.80;;
74215;SDS011;62577;53.378;-2.914;2022-12-07T09:32:22;3.50;;;1.40;;
74215;SDS011;62577;53.378;-2.914;2022-12-07T09:34:48;4.30;;;1.30;;
74215;SDS011;62577;53.378;-2.914;2022-12-07T09:37:14;5.13;;;2.03;;
74215;SDS011;62577;53.378;-2.914;2022-12-07T09:39:40;6.00;;;2.05;;
74215;SDS011;62577;53.378;-2.914;2022-12-07T09:42:07;1.95;;;1.23;;
74215;SDS011;62577;53.378;-2.914;2022-12-07T09:44:35;4.03;;;2.08;;
74215;SDS011;62577;53.378;-2.914;2022-12-07T09:47:01;4.75;;;3.80;;
74215;SDS011;62577;53.378;-2.914;2022-12-07T09:49:28;4.60;;;2.80;;
74215;SDS011;62577;53.378;-2.914;2022-12-07T09:54:34;4.45;;;4.00;;
74215;SDS011;62577;53.378;-2.914;2022-12-07T09:57:01;6.63;;;5.88;;
74215;SDS011;62577;53.378;-2.914;2022-12-07T09:59:27;9.23;;;7.53;;
74215;SDS011;62577;53.378;-2.914;2022-12-07T10:01:53;1999.90;;;999.90;;
74215;SDS011;62577;53.378;-2.914;2022-12-07T10:04:20;1999.90;;;999.90;;
74215;SDS011;62577;53.378;-2.914;2022-12-07T10:06:50;1999.90;;;999.90;;
74215;SDS011;62577;53.378;-2.914;2022-12-07T10:09:17;1999.90;;;999.90;;
74215;SDS011;62577;53.378;-2.914;2022-12-07T10:11:59;1999.90;;;999.90;;
74215;SDS011;62577;53.378;-2.914;2022-12-07T10:14:27;1999.90;;;999.90;;
74215;SDS011;62577;53.378;-2.914;2022-12-07T10:16:54;1999.90;;;999.90;;
74215;SDS011;62577;53.378;-2.914;2022-12-07T10:19:25;3.90;;;1.30;;
74215;SDS011;62577;53.378;-2.914;2022-12-07T10:24:30;6.60;;;1.55;;
74215;SDS011;62577;53.378;-2.914;2022-12-07T10:26:56;3.42;;;1.42;;
74215;SDS011;62577;53.378;-2.914;2022-12-07T10:29:23;6.32;;;1.35;;
74215;SDS011;62577;53.378;-2.914;2022-12-07T10:32:03;3.78;;;1.63;;
74215;SDS011;62577;53.378;-2.914;2022-12-07T10:39:46;5.57;;;2.05;;
74215;SDS011;62577;53.378;-2.914;2022-12-07T10:42:23;4.68;;;1.00;;
74215;SDS011;62577;53.378;-2.914;2022-12-07T10:44:50;3.97;;;1.23;;
74215;SDS011;62577;53.378;-2.914;2022-12-07T10:47:21;3.90;;;1.38;;
74215;SDS011;62577;53.378;-2.914;2022-12-07T10:49:55;8.80;;;1.48;;
74215;SDS011;62577;53.378;-2.914;2022-12-07T10:58:00;3.55;;;1.10;;
74215;SDS011;62577;53.378;-2.914;2022-12-07T11:00:24;2.47;;;1.17;;
74215;SDS011;62577;53.378;-2.914;2022-12-07T11:05:19;5.72;;;1.40;;
74215;SDS011;62577;53.378;-2.914;2022-12-07T11:10:30;5.55;;;1.90;;
74215;SDS011;62577;53.378;-2.914;2022-12-07T11:26:05;3.20;;;1.20;;
74215;SDS011;62577;53.378;-2.914;2022-12-07T11:28:39;3.67;;;1.42;;
74215;SDS011;62577;53.378;-2.914;2022-12-07T11:33:47;5.85;;;1.67;;
74215;SDS011;62577;53.378;-2.914;2022-12-07T11:36:25;7.55;;;1.83;;
74215;SDS011;62577;53.378;-2.914;2022-12-07T11:38:57;7.45;;;2.05;;
74215;SDS011;62577;53.378;-2.914;2022-12-07T11:41:24;5.63;;;1.77;;
74215;SDS011;62577;53.378;-2.914;2022-12-07T11:46:18;6.78;;;1.50;;
74215;SDS011;62577;53.378;-2.914;2022-12-07T11:49:01;4.15;;;1.30;;
74215;SDS011;62577;53.378;-2.914;2022-12-07T11:51:28;3.05;;;1.45;;
74215;SDS011;62577;53.378;-2.914;2022-12-07T11:54:03;5.20;;;1.33;;
74215;SDS011;62577;53.378;-2.914;2022-12-07T11:56:31;2.00;;;0.93;;
74215;SDS011;62577;53.378;-2.914;2022-12-07T11:59:11;4.95;;;1.38;;
74215;SDS011;62577;53.378;-2.914;2022-12-07T12:04:07;4.63;;;1.42;;
74215;SDS011;62577;53.378;-2.914;2022-12-07T12:06:43;4.75;;;1.50;;
74215;SDS011;62577;53.378;-2.914;2022-12-07T12:09:26;4.00;;;1.85;;
74215;SDS011;62577;53.378;-2.914;2022-12-07T12:22:18;4.28;;;1.63;;
74215;SDS011;62577;53.378;-2.914;2022-12-07T12:24:47;6.18;;;2.10;;
74215;SDS011;62577;53.378;-2.914;2022-12-07T12:27:33;5.45;;;2.40;;
74215;SDS011;62577;53.378;-2.914;2022-12-07T12:30:00;6.95;;;2.53;;
74215;SDS011;62577;53.378;-2.914;2022-12-07T12:32:35;8.32;;;3.28;;
74215;SDS011;62577;53.378;-2.914;2022-12-07T12:40:42;3.42;;;1.25;;
74215;SDS011;62577;53.378;-2.914;2022-12-07T12:42:55;6.07;;;1.40;;
74215;SDS011;62577;53.378;-2.914;2022-12-07T12:45:29;8.07;;;1.95;;
74215;SDS011;62577;53.378;-2.914;2022-12-07T12:48:55;3.05;;;0.90;;
74215;SDS011;62577;53.378;-2.914;2022-12-07T12:50:58;2.97;;;1.30;;
74215;SDS011;62577;53.378;-2.914;2022-12-07T12:53:36;4.20;;;1.25;;
74215;SDS011;62577;53.378;-2.914;2022-12-07T12:58:32;2.40;;;1.25;;
74215;SDS011;62577;53.378;-2.914;2022-12-07T13:03:53;6.15;;;1.23;;
74215;SDS011;62577;53.378;-2.914;2022-12-07T13:08:53;4.82;;;1.05;;
74215;SDS011;62577;53.378;-2.914;2022-12-07T13:11:25;4.93;;;1.30;;
74215;SDS011;62577;53.378;-2.914;2022-12-07T13:14:27;3.53;;;1.00;;
74215;SDS011;62577;53.378;-2.914;2022-12-07T13:16:40;3.63;;;0.75;;
74215;SDS011;62577;53.378;-2.914;2022-12-07T13:19:27;2.97;;;0.70;;
74215;SDS011;62577;53.378;-2.914;2022-12-07T13:21:52;1.38;;;0.55;;
74215;SDS011;62577;53.378;-2.914;2022-12-07T13:24:18;2.50;;;0.73;;
74215;SDS011;62577;53.378;-2.914;2022-12-07T13:26:44;2.95;;;1.10;;
74215;SDS011;62577;53.378;-2.914;2022-12-07T13:29:14;3.50;;;0.77;;
74215;SDS011;62577;53.378;-2.914;2022-12-07T13:31:45;7.60;;;1.73;;
74215;SDS011;62577;53.378;-2.914;2022-12-07T13:34:29;4.72;;;1.38;;
74215;SDS011;62577;53.378;-2.914;2022-12-07T13:36:56;4.93;;;0.98;;
74215;SDS011;62577;53.378;-2.914;2022-12-07T13:39:23;7.22;;;1.20;;
74215;SDS011;62577;53.378;-2.914;2022-12-07T13:41:51;4.30;;;1.40;;
74215;SDS011;62577;53.378;-2.914;2022-12-07T13:44:17;3.80;;;1.23;;
74215;SDS011;62577;53.378;-2.914;2022-12-07T13:49:15;4.65;;;1.00;;
74215;SDS011;62577;53.378;-2.914;2022-12-07T13:51:42;4.68;;;1.25;;
74215;SDS011;62577;53.378;-2.914;2022-12-07T13:54:12;2.42;;;0.70;;
74215;SDS011;62577;53.378;-2.914;2022-12-07T13:56:38;3.08;;;0.65;;
74215;SDS011;62577;53.378;-2.914;2022-12-07T13:59:05;3.47;;;0.82;;
74215;SDS011;62577;53.378;-2.914;2022-12-07T14:01:36;3.95;;;1.48;;
74215;SDS011;62577;53.378;-2.914;2022-12-07T14:06:47;2.92;;;0.70;;
74215;SDS011;62577;53.378;-2.914;2022-12-07T14:09:18;2.72;;;0.75;;
74215;SDS011;62577;53.378;-2.914;2022-12-07T14:11:47;2.45;;;0.70;;
74215;SDS011;62577;53.378;-2.914;2022-12-07T14:14:14;2.67;;;0.63;;
74215;SDS011;62577;53.378;-2.914;2022-12-07T14:16:41;4.80;;;0.90;;
74215;SDS011;62577;53.378;-2.914;2022-12-07T14:22:07;5.68;;;1.23;;
74215;SDS011;62577;53.378;-2.914;2022-12-07T14:24:41;4.25;;;0.98;;
74215;SDS011;62577;53.378;-2.914;2022-12-07T14:27:15;4.70;;;0.65;;
74215;SDS011;62577;53.378;-2.914;2022-12-07T14:29:42;3.75;;;1.23;;
74215;SDS011;62577;53.378;-2.914;2022-12-07T14:32:14;2.15;;;0.85;;
74215;SDS011;62577;53.378;-2.914;2022-12-07T14:37:25;9.27;;;1.45;;
74215;SDS011;62577;53.378;-2.914;2022-12-07T14:39:51;3.03;;;0.60;;
74215;SDS011;62577;53.378;-2.914;2022-12-07T14:42:17;2.40;;;0.70;;
74215;SDS011;62577;53.378;-2.914;2022-12-07T14:44:44;3.67;;;0.95;;
74215;SDS011;62577;53.378;-2.914;2022-12-07T14:47:10;1.77;;;1.10;;
74215;SDS011;62577;53.378;-2.914;2022-12-07T14:49:37;2.33;;;0.52;;
74215;SDS011;62577;53.378;-2.914;2022-12-07T14:52:03;3.50;;;0.98;;
74215;SDS011;62577;53.378;-2.914;2022-12-07T14:54:30;1.52;;;0.68;;
74215;SDS011;62577;53.378;-2.914;2022-12-07T14:56:57;1.25;;;0.70;;
74215;SDS011;62577;53.378;-2.914;2022-12-07T14:59:23;4.97;;;0.60;;
74215;SDS011;62577;53.378;-2.914;2022-12-07T15:01:49;2.53;;;0.80;;
74215;SDS011;62577;53.378;-2.914;2022-12-07T15:04:15;4.68;;;1.00;;
74215;SDS011;62577;53.378;-2.914;2022-12-07T15:06:41;3.75;;;1.20;;
74215;SDS011;62577;53.378;-2.914;2022-12-07T15:09:11;4.60;;;1.42;;
74215;SDS011;62577;53.378;-2.914;2022-12-07T15:11:37;5.60;;;2.95;;
74215;SDS011;62577;53.378;-2.914;2022-12-07T15:14:03;6.28;;;2.20;;
74215;SDS011;62577;53.378;-2.914;2022-12-07T15:16:38;5.10;;;1.50;;
74215;SDS011;62577;53.378;-2.914;2022-12-07T15:19:11;5.68;;;1.20;;
74215;SDS011;62577;53.378;-2.914;2022-12-07T15:21:37;4.15;;;1.08;;
74215;SDS011;62577;53.378;-2.914;2022-12-07T15:24:03;3.53;;;1.52;;
74215;SDS011;62577;53.378;-2.914;2022-12-07T15:26:29;3.67;;;1.38;;
74215;SDS011;62577;53.378;-2.914;2022-12-07T15:28:56;7.35;;;1.75;;
74215;SDS011;62577;53.378;-2.914;2022-12-07T15:31:22;6.22;;;1.40;;
74215;SDS011;62577;53.378;-2.914;2022-12-07T15:33:49;5.43;;;1.40;;
74215;SDS011;62577;53.378;-2.914;2022-12-07T15:36:22;7.18;;;2.63;;
74215;SDS011;62577;53.378;-2.914;2022-12-07T15:38:49;4.95;;;1.92;;
74215;SDS011;62577;53.378;-2.914;2022-12-07T15:41:16;5.00;;;1.90;;
74215;SDS011;62577;53.378;-2.914;2022-12-07T15:43:42;7.72;;;1.90;;
74215;SDS011;62577;53.378;-2.914;2022-12-07T15:46:31;6.50;;;1.63;;
74215;SDS011;62577;53.378;-2.914;2022-12-07T15:48:57;5.93;;;1.77;;
74215;SDS011;62577;53.378;-2.914;2022-12-07T15:51:23;6.13;;;2.00;;
74215;SDS011;62577;53.378;-2.914;2022-12-07T15:53:49;4.82;;;1.75;;
74215;SDS011;62577;53.378;-2.914;2022-12-07T15:56:15;6.45;;;2.00;;
74215;SDS011;62577;53.378;-2.914;2022-12-07T15:58:41;8.63;;;2.33;;
74215;SDS011;62577;53.378;-2.914;2022-12-07T16:01:15;6.22;;;2.17;;
74215;SDS011;62577;53.378;-2.914;2022-12-07T16:03:41;6.63;;;2.33;;
74215;SDS011;62577;53.378;-2.914;2022-12-07T16:06:07;5.88;;;2.50;;
74215;SDS011;62577;53.378;-2.914;2022-12-07T16:08:33;5.53;;;1.75;;
74215;SDS011;62577;53.378;-2.914;2022-12-07T16:10:59;5.13;;;2.42;;
74215;SDS011;62577;53.378;-2.914;2022-12-07T16:13:25;4.90;;;2.20;;
74215;SDS011;62577;53.378;-2.914;2022-12-07T16:15:51;5.07;;;2.13;;
74215;SDS011;62577;53.378;-2.914;2022-12-07T16:18:17;6.03;;;2.55;;
74215;SDS011;62577;53.378;-2.914;2022-12-07T16:20:44;6.57;;;2.65;;
74215;SDS011;62577;53.378;-2.914;2022-12-07T16:23:12;4.25;;;2.53;;
74215;SDS011;62577;53.378;-2.914;2022-12-07T16:25:38;8.23;;;1.88;;
74215;SDS011;62577;53.378;-2.914;2022-12-07T16:28:04;3.88;;;1.52;;
74215;SDS011;62577;53.378;-2.914;2022-12-07T16:30:30;5.40;;;2.03;;
74215;SDS011;62577;53.378;-2.914;2022-12-07T16:32:56;5.05;;;1.85;;